Tee — WDF2365 — position and weather

sailwx.info

Track history (hours):
 
Tides and Currents Weather Stations Pressure Air Temp Water Temp Dewpoint Dewpoint Depression Visibility Wind Speed Wind Dir Waves Ship Positions

Tee

Owner: Enterprise Marine Services, LLC, San Antonio, TX. More information available from US FCC via Universal Licensing System and Coast Guard Vessel Documentation Center.

Last reported at 2018-Apr-26 03:00 UTC. Time now 2018-Apr-26 03:24 UTC.
Position N 29°58' W 093°51'.

Length 24 m; draft 3 m.

Type: . MMSI: 367003980.

Date/timePositionNaut miles runAvg speedWind from/ knotsBaromVisibWave heightAir tempDewpointWater temp
2018-Apr-26 03:00N 29°58' W 093°51'4 7.3
2018-Apr-26 02:31N 29°60' W 093°47'4 7.3
2018-Apr-26 02:01N 30°02' W 093°44'3 6.5
2018-Apr-26 01:30N 30°04' W 093°41'3 6.1
2018-Apr-26 01:00N 30°04' W 093°37'3 6.0
2018-Apr-26 00:30N 30°04' W 093°34'3 6.0
2018-Apr-26 00:00N 30°04' W 093°30'3 6.1
2018-Apr-25 23:31N 30°04' W 093°27'3 6.0
2018-Apr-25 23:00N 30°04' W 093°23'2 5.0
2018-Apr-25 22:30N 30°04' W 093°20'2 4.8
2018-Apr-25 22:01N 30°06' W 093°19'0 0.1
2018-Apr-25 21:31N 30°06' W 093°19'0 0.1
2018-Apr-25 21:00N 30°06' W 093°19'2 2.9
2018-Apr-25 20:28N 30°05' W 093°17'1 1.3
2018-Apr-25 19:58N 30°05' W 093°17'1 1.4
2018-Apr-25 19:30N 30°04' W 093°16'3 5.3
2018-Apr-25 19:00N 30°02' W 093°15'2 4.6
2018-Apr-25 18:29N 29°60' W 093°13'5 6.3
2018-Apr-25 17:39N 29°56' W 093°09'1 6.5
2018-Apr-25 17:29N 29°56' W 093°08'21 5.8
2018-Apr-25 13:48N 29°57' W 092°43'13 3.2
2018-Apr-25 09:49N 29°54' W 092°29'0 0.2
2018-Apr-25 09:30N 29°54' W 092°29'0 0.2
2018-Apr-25 08:57N 29°54' W 092°29'2 2.6
2018-Apr-25 08:03N 29°53' W 092°27'0 5.8
2018-Apr-25 08:00N 29°53' W 092°26'3 5.6
2018-Apr-25 07:25N 29°52' W 092°23'2 5.5
2018-Apr-25 07:00N 29°51' W 092°21'3 5.7
2018-Apr-25 06:30N 29°50' W 092°18'2 4.3
2018-Apr-25 06:00N 29°48' W 092°16'72 3.0
2018-Apr-24 06:00N 29°33' W 090°55'3 5.5
2018-Apr-24 05:30N 29°32' W 090°52'3 5.4
2018-Apr-24 05:00N 29°32' W 090°49'2 3.6
2018-Apr-24 04:30N 29°32' W 090°46'2 4.5
2018-Apr-24 04:00N 29°34' W 090°45'2 3.7
2018-Apr-24 03:30N 29°35' W 090°43'2 4.4
2018-Apr-24 03:00N 29°37' W 090°42'2 3.7
2018-Apr-24 02:30N 29°36' W 090°40'0 0.0
2018-Apr-24 02:00N 29°36' W 090°40'0 0.0
2018-Apr-24 01:31N 29°36' W 090°40'0 0.0
2018-Apr-24 01:00N 29°36' W 090°40'0 0.0
2018-Apr-24 00:31N 29°36' W 090°40'0 0.0
2018-Apr-24 00:01N 29°36' W 090°40'0 0.5
2018-Apr-23 23:30N 29°36' W 090°40'2 4.3
2018-Apr-23 23:00N 29°35' W 090°38'2 4.2
2018-Apr-23 22:30N 29°35' W 090°35'  
Track history (hours):
 
Tides and Currents Weather Stations Pressure Air Temp Water Temp Dewpoint Dewpoint Depression Visibility Wind Speed Wind Dir Waves Ship Positions

Tee

Owner: Enterprise Marine Services, LLC, San Antonio, TX. More information available from US FCC via Universal Licensing System and Coast Guard Vessel Documentation Center.

Last reported at 2018-Apr-26 03:00 UTC. Time now 2018-Apr-26 03:24 UTC.
Position N 29°58' W 093°51'.

Length 24 m; draft 3 m.

Type: . MMSI: 367003980.

Date/timePositionNaut miles runAvg speedWind from/ knotsBaromVisibWave heightAir tempDewpointWater temp
2018-Apr-26 03:00N 29°58' W 093°51'4 7.3
2018-Apr-26 02:31N 29°60' W 093°47'4 7.3
2018-Apr-26 02:01N 30°02' W 093°44'3 6.5
2018-Apr-26 01:30N 30°04' W 093°41'3 6.1
2018-Apr-26 01:00N 30°04' W 093°37'3 6.0
2018-Apr-26 00:30N 30°04' W 093°34'3 6.0
2018-Apr-26 00:00N 30°04' W 093°30'3 6.1
2018-Apr-25 23:31N 30°04' W 093°27'3 6.0
2018-Apr-25 23:00N 30°04' W 093°23'2 5.0
2018-Apr-25 22:30N 30°04' W 093°20'2 4.8
2018-Apr-25 22:01N 30°06' W 093°19'0 0.1
2018-Apr-25 21:31N 30°06' W 093°19'0 0.1
2018-Apr-25 21:00N 30°06' W 093°19'2 2.9
2018-Apr-25 20:28N 30°05' W 093°17'1 1.3
2018-Apr-25 19:58N 30°05' W 093°17'1 1.4
2018-Apr-25 19:30N 30°04' W 093°16'3 5.3
2018-Apr-25 19:00N 30°02' W 093°15'2 4.6
2018-Apr-25 18:29N 29°60' W 093°13'5 6.3
2018-Apr-25 17:39N 29°56' W 093°09'1 6.5
2018-Apr-25 17:29N 29°56' W 093°08'21 5.8
2018-Apr-25 13:48N 29°57' W 092°43'13 3.2
2018-Apr-25 09:49N 29°54' W 092°29'0 0.2
2018-Apr-25 09:30N 29°54' W 092°29'0 0.2
2018-Apr-25 08:57N 29°54' W 092°29'2 2.6
2018-Apr-25 08:03N 29°53' W 092°27'0 5.8
2018-Apr-25 08:00N 29°53' W 092°26'3 5.6
2018-Apr-25 07:25N 29°52' W 092°23'2 5.5
2018-Apr-25 07:00N 29°51' W 092°21'3 5.7
2018-Apr-25 06:30N 29°50' W 092°18'2 4.3
2018-Apr-25 06:00N 29°48' W 092°16'72 3.0
2018-Apr-24 06:00N 29°33' W 090°55'3 5.5
2018-Apr-24 05:30N 29°32' W 090°52'3 5.4
2018-Apr-24 05:00N 29°32' W 090°49'2 3.6
2018-Apr-24 04:30N 29°32' W 090°46'2 4.5
2018-Apr-24 04:00N 29°34' W 090°45'2 3.7
2018-Apr-24 03:30N 29°35' W 090°43'2 4.4
2018-Apr-24 03:00N 29°37' W 090°42'2 3.7
2018-Apr-24 02:30N 29°36' W 090°40'0 0.0
2018-Apr-24 02:00N 29°36' W 090°40'0 0.0
2018-Apr-24 01:31N 29°36' W 090°40'0 0.0
2018-Apr-24 01:00N 29°36' W 090°40'0 0.0
2018-Apr-24 00:31N 29°36' W 090°40'0 0.0
2018-Apr-24 00:01N 29°36' W 090°40'0 0.5
2018-Apr-23 23:30N 29°36' W 090°40'2 4.3
2018-Apr-23 23:00N 29°35' W 090°38'2 4.2
2018-Apr-23 22:30N 29°35' W 090°35'  

Dump ship's entire track history